• Join FlightAware (Why Join?)
  • Login
  • US Flag 
02:25PM EDT


 

Airport Tracker/Info


-or-


 

Live Flight TrackerFlight Track Log ✈ UAL1509 ✈ 22-Apr-2013 ✈ KIAH - MGGT / GUA

Flight Track Log - Related Links

Times and Time Zones

All times are in EDT time to prevent confusion due to time zone crossing. See the UAL1509 flight status page for this flight to view local times or setup timezone preferences in your user account.

Time Position Orientation Groundspeed Altitude Reporting Facility
EDT Latitude Longitude Course Direction KTS MPH feet Rate Location/Type
12:49PM 29.9639 -95.3433 147° Southeast 165 190 800  Level Houston Center
12:49PM 29.9353 -95.3081 133° Southeast 221 254 2,500 1,800 Climbing Houston Center
12:50PM 29.8919 -95.2483 130° Southeast 256 295 4,000 1,080 Climbing Houston Center
12:51PM 29.8844 -95.2358 125° Southeast 231 266 4,000  Level Houston Center
12:52PM 29.8392 -95.1753 131° Southeast 260 299 4,000  Level Houston Center
12:52PM 29.8372 -95.1706 115° Southeast 250 288 4,000 840 Level Houston Center
12:52PM 29.7844 -95.1314 147° Southeast 264 304 4,800 1,800 Climbing Houston Center
12:53PM 29.4288 -94.9763 151° Southeast  Level FlightAware Approximate
12:53PM 29.7622 -95.1189 154° Southeast 268 308 5,900  Level Houston Center
12:54PM 29.3176 -94.9048 147° Southeast  Level FlightAware Approximate
12:54PM 29.6864 -95.0794 156° South 289 333 8,400  Level Houston Center
12:55PM 29.5953 -95.0339 157° South 339 390 10,600 2,340 Climbing Houston Center
12:56PM 29.4906 -94.9800 156° South 403 464 13,300 2,700 Climbing Houston Center
12:57PM 29.3856 -94.9267 156° South 408 470 16,300 2,460 Climbing Houston Center
12:58PM 29.2761 -94.8706 156° South 426 490 18,400 2,220 Climbing Houston Center
12:59PM 29.1683 -94.7997 150° Southeast 443 510 20,900 2,160 Climbing Houston Center
01:00PM 29.0558 -94.7297 151° Southeast 456 525 22,900 2,040 Climbing Houston Center
01:01PM 28.9075 -94.6731 162° South 465 535 25,200 1,980 Climbing Houston Center
01:02PM 28.7831 -94.6231 161° South 472 543 27,000 1,440 Climbing Houston Center
01:03PM 28.6539 -94.5742 162° South 485 558 28,200 1,200 Climbing Houston Center
01:04PM 28.5231 -94.5236 161° South 495 570 29,500 1,320 Climbing Houston Center
01:05PM 28.3903 -94.4717 161° South 501 577 31,000 1,200 Climbing Houston Center
01:06PM 28.2575 -94.4211 161° South 502 578 32,100 1,380 Climbing Houston Center
01:07PM 28.0964 -94.3592 161° South 508 585 33,900 1,500 Climbing Houston Center
01:08PM 27.9661 -94.3075 161° South 498 573 35,300 1,080 Climbing Houston Center
01:09PM 27.8353 -94.2589 162° South 496 571 36,200 720 Climbing Houston Center
01:10PM 27.7036 -94.2081 161° South 500 575 36,900 300 Climbing Houston Center
01:11PM 27.5714 -94.1581 161° South 500 575 36,900  Level Houston Center
01:13PM 27.4131 -94.0972 161° South 499 574 36,900  Level Houston Center
01:14PM 27.2808 -94.0481 162° South 499 574 36,900  Level Houston Center
01:15PM 27.1500 -93.9972 161° South 498 573 36,900  Level Houston Center
01:16PM 27.0178 -93.9483 162° South 498 573 36,900  Level Houston Center
01:17PM 26.8844 -93.8992 162° South 504 580 36,900  Level Houston Center
01:18PM 26.7514 -93.8486 161° South 504 580 36,900  Level Houston Center
01:19PM 26.6017 -93.7922 161° South 507 583 36,900  Level Houston Center
01:20PM 26.4708 -93.7314 157° South 508 585 36,900  Level Houston Center
01:21PM 26.3431 -93.6614 154° Southeast 507 583 36,900  Level Houston Center
01:22PM 26.2158 -93.5800 150° Southeast 511 588 36,900  Level Houston Center
01:24PM 26.0219 -93.4567 150° Southeast  Level FlightAware Approximate
01:31PM 25.2105 -92.9558 153° Southeast  Level FlightAware Approximate
01:32PM 25.0937 -92.8864 152° Southeast  Level FlightAware Approximate
01:33PM 24.9770 -92.8167 152° Southeast  Level FlightAware Approximate
01:34PM 24.8603 -92.7471 152° Southeast  Level FlightAware Approximate
01:35PM 24.7436 -92.6777 152° Southeast  Level FlightAware Approximate
01:36PM 24.6268 -92.6084 152° Southeast  Level FlightAware Approximate
01:37PM 24.5100 -92.5393 152° Southeast  Level FlightAware Approximate
01:38PM 24.3879 -92.4824 158° South  Level FlightAware Approximate
01:39PM 24.2653 -92.4269 158° South  Level FlightAware Approximate
01:40PM 24.1426 -92.3714 158° South  Level FlightAware Approximate
01:41PM 24.0200 -92.3161 158° South  Level FlightAware Approximate
01:42PM 23.8973 -92.2608 158° South  Level FlightAware Approximate
01:43PM 23.7746 -92.2057 158° South  Level FlightAware Approximate
01:44PM 23.6519 -92.1507 158° South  Level FlightAware Approximate
01:45PM 23.5291 -92.0958 158° South  Level FlightAware Approximate
01:46PM 23.4064 -92.0409 158° South  Level FlightAware Approximate
01:47PM 23.2836 -91.9862 158° South  Level FlightAware Approximate
01:48PM 23.1608 -91.9316 158° South  Level FlightAware Approximate
01:49PM 23.0380 -91.8771 158° South  Level FlightAware Approximate
01:50PM 22.9151 -91.8227 158° South  Level FlightAware Approximate
01:51PM 22.7923 -91.7683 158° South  Level FlightAware Approximate
01:52PM 22.6694 -91.7141 158° South  Level FlightAware Approximate
01:53PM 22.5465 -91.6600 158° South  Level FlightAware Approximate
01:54PM 22.4236 -91.6059 158° South  Level FlightAware Approximate
01:55PM 22.3007 -91.5520 158° South  Level FlightAware Approximate
01:56PM 22.1777 -91.4982 158° South  Level FlightAware Approximate
01:57PM 22.0548 -91.4444 158° South  Level FlightAware Approximate
01:58PM 21.9318 -91.3907 158° South  Level FlightAware Approximate
01:59PM 21.8088 -91.3372 158° South  Level FlightAware Approximate
02:00PM 21.6858 -91.2837 158° South  Level FlightAware Approximate
02:01PM 21.5627 -91.2303 158° South  Level FlightAware Approximate
02:02PM 21.4397 -91.1770 158° South  Level FlightAware Approximate
02:03PM 21.3166 -91.1238 158° South  Level FlightAware Approximate
02:04PM 21.1931 -91.0718 159° South  Level FlightAware Approximate
02:05PM 21.0695 -91.0200 159° South  Level FlightAware Approximate
02:06PM 20.9460 -90.9683 159° South  Level FlightAware Approximate
02:07PM 20.8224 -90.9167 159° South  Level FlightAware Approximate
02:08PM 20.6988 -90.8652 159° South  Level FlightAware Approximate
02:09PM 20.5752 -90.8137 159° South  Level FlightAware Approximate
02:10PM 20.4515 -90.7624 159° South  Level FlightAware Approximate
02:11PM 20.3279 -90.7111 159° South  Level FlightAware Approximate
02:12PM 20.2042 -90.6599 159° South  Level FlightAware Approximate
02:13PM 20.0805 -90.6088 159° South  Level FlightAware Approximate
02:14PM 19.9569 -90.5577 159° South  Level FlightAware Approximate
02:15PM 19.8331 -90.5068 159° South  Level FlightAware Approximate
02:16PM 19.7037 -90.4773 169° South  Level FlightAware Approximate
02:17PM 19.5733 -90.4512 169° South  Level FlightAware Approximate
02:18PM 19.4429 -90.4251 169° South  Level FlightAware Approximate
02:19PM 19.3126 -90.3991 169° South  Level FlightAware Approximate
02:20PM 19.1822 -90.3731 169° South  Level FlightAware Approximate
02:21PM 19.0518 -90.3471 169° South  Level FlightAware Approximate
02:22PM 18.9214 -90.3212 169° South  Level FlightAware Approximate
02:23PM 18.7910 -90.2954 169° South  Level FlightAware Approximate
02:24PM 18.6607 -90.2695 169° South  Level FlightAware Approximate
02:25PM 18.5303 -90.2437 169° South  Level FlightAware Approximate
02:26PM 18.3999 -90.2180 169° South  Level FlightAware Approximate
02:27PM 18.2695 -90.1923 169° South  Level FlightAware Approximate
02:28PM 18.1391 -90.1666 169° South  Level FlightAware Approximate
02:29PM 18.0087 -90.1409 169° South  Level FlightAware Approximate
02:30PM 17.8783 -90.1153 169° South  Level FlightAware Approximate
02:31PM 17.7469 -90.1000 180° South  Level FlightAware Approximate
02:32PM 17.6150 -90.1136 186° South  Level FlightAware Approximate
02:33PM 17.4831 -90.1286 186° South  Level FlightAware Approximate
02:34PM 17.3512 -90.1437 186° South  Level FlightAware Approximate
02:35PM 17.2193 -90.1588 186° South  Level FlightAware Approximate
02:36PM 17.0880 -90.1779 190° South  Level FlightAware Approximate
02:37PM 16.9572 -90.2000 180° South  Level FlightAware Approximate
02:38PM 16.8252 -90.2115 187° South  Level FlightAware Approximate
02:39PM 16.6934 -90.2279 187° South  Level FlightAware Approximate
02:40PM 16.5617 -90.2444 187° South  Level FlightAware Approximate
02:41PM 16.4309 -90.2670 187° South  Level FlightAware Approximate
02:42PM 16.2992 -90.2834 186° South  Level FlightAware Approximate
02:43PM 16.1673 -90.2981 186° South  Level FlightAware Approximate
02:44PM 16.0363 -90.3201 190° South  Level FlightAware Approximate
02:45PM 15.9055 -90.3431 190° South  Level FlightAware Approximate
02:46PM 15.7740 -90.3609 186° South  Level FlightAware Approximate
02:47PM 15.6422 -90.3764 186° South  Level FlightAware Approximate
02:48PM 15.5106 -90.3937 188° South  Level FlightAware Approximate
02:49PM 15.3792 -90.4125 188° South  Level FlightAware Approximate
02:50PM 15.2473 -90.4269 186° South  Level FlightAware Approximate
02:51PM 15.1159 -90.4456 190° South  Level FlightAware Approximate
02:52PM 14.9850 -90.4667 180° South  Level FlightAware Approximate
02:53PM 14.8539 -90.4779 186° South  Level FlightAware Approximate
02:54PM 14.7253 -90.4957 206° Southwest  Level FlightAware Approximate
02:55PM 14.5957 -90.5094 194° South  Level FlightAware Approximate
02:56PM 14.5833 -90.5275 194° South  Level Estimated
02:57PM 14.5833 -90.5275 194° South  Level Estimated
02:58PM 14.5833 -90.5275 194° South  Level Estimated
02:59PM 14.5833 -90.5275 194° South  Level Estimated
03:00PM 14.5833 -90.5275 194° South  Level Estimated
03:01PM 14.5833 -90.5275 194° South  Level Estimated
03:02PM 14.5833 -90.5275 194° South  Level Estimated